Time;durP1;ratioP1;P1;durP2;ratioP2;P2;SDS_P1;SDS_P2;PMS_P1;PMS_P2;Temp;Humidity;BMP_temperature;BMP_pressure;BME280_temperature;BME280_humidity;BME280_pressure;Samples;Min_cycle;Max_cycle;Signal;HPM_P1;HPM_P2
2024/01/30 00:01:57;;;;;;;6.07;4.67;;;;;9.80;102060.00;;;;12681008;23;20221;-81
2024/01/30 00:06:59;;;;;;;8.40;5.00;;;;;9.80;102058.00;;;;12632657;23;20955;-81
2024/01/30 00:12:01;;;;;;;5.80;5.17;;;;;9.90;102052.00;;;;12657223;23;20264;-81
2024/01/30 00:17:03;;;;;;;6.50;4.57;;;;;9.90;102043.00;;;;12656895;23;20196;-79
2024/01/30 00:22:04;;;;;;;6.10;4.53;;;;;9.90;102050.00;;;;12670565;22;20230;-79
2024/01/30 00:27:08;;;;;;;5.93;4.70;;;;;10.00;102045.00;;;;12656021;23;20274;-79
2024/01/30 00:32:09;;;;;;;5.80;4.60;;;;;10.10;102040.00;;;;12655982;23;20222;-79
2024/01/30 00:37:11;;;;;;;7.67;4.53;;;;;10.10;102033.00;;;;12632536;23;20195;-80
2024/01/30 00:42:13;;;;;;;7.10;4.70;;;;;10.20;102021.00;;;;12632028;23;20196;-80
2024/01/30 00:47:15;;;;;;;6.77;4.60;;;;;10.30;102019.00;;;;12655339;23;20257;-80
2024/01/30 00:52:17;;;;;;;7.73;4.27;;;;;10.30;102021.00;;;;12654792;23;20843;-80
2024/01/30 00:57:19;;;;;;;6.37;4.47;;;;;10.40;102021.00;;;;12655941;23;20821;-80
2024/01/30 01:02:21;;;;;;;8.67;4.60;;;;;10.40;102023.00;;;;12655757;23;20852;-80
2024/01/30 01:07:23;;;;;;;7.10;4.23;;;;;10.30;102022.00;;;;12655387;23;20199;-80
2024/01/30 01:12:25;;;;;;;6.93;5.00;;;;;10.40;102022.00;;;;12655987;23;20233;-79
2024/01/30 01:17:27;;;;;;;6.57;4.80;;;;;10.40;102014.00;;;;12654292;23;20199;-80
2024/01/30 01:22:30;;;;;;;5.93;4.60;;;;;10.40;102008.00;;;;12630488;23;20229;-80
2024/01/30 01:27:32;;;;;;;6.13;4.50;;;;;10.50;102006.00;;;;12656123;23;20207;-80
2024/01/30 01:32:34;;;;;;;7.03;4.00;;;;;10.50;102011.00;;;;12657421;23;20274;-81
2024/01/30 01:37:36;;;;;;;6.03;4.67;;;;;10.50;102009.00;;;;12633896;23;20255;-80
2024/01/30 01:42:38;;;;;;;6.13;4.23;;;;;10.40;102009.00;;;;12657580;23;20195;-79
2024/01/30 01:47:40;;;;;;;6.80;4.43;;;;;10.40;101998.00;;;;12655943;23;20196;-80
2024/01/30 01:52:42;;;;;;;4.77;4.10;;;;;10.30;102004.00;;;;12656673;23;20199;-80
2024/01/30 01:57:44;;;;;;;6.67;4.40;;;;;10.40;101996.00;;;;12658243;23;20253;-80
2024/01/30 02:02:47;;;;;;;4.77;4.27;;;;;10.30;101990.00;;;;12633750;23;20504;-80
2024/01/30 02:07:50;;;;;;;6.57;4.77;;;;;10.40;101991.00;;;;12657395;23;20203;-80
2024/01/30 02:12:52;;;;;;;6.03;4.87;;;;;10.40;101982.00;;;;12656726;23;20271;-80
2024/01/30 02:17:54;;;;;;;9.27;3.77;;;;;10.50;101992.00;;;;12681187;23;20843;-80
2024/01/30 02:22:58;;;;;;;6.97;4.30;;;;;10.40;101988.00;;;;12656236;23;20249;-80
2024/01/30 02:28:01;;;;;;;7.83;4.30;;;;;10.40;101990.00;;;;12680255;23;20207;-80
2024/01/30 02:33:03;;;;;;;5.57;4.70;;;;;10.30;101988.00;;;;12633590;23;20195;-80
2024/01/30 02:38:05;;;;;;;6.93;4.70;;;;;10.10;101987.00;;;;12656655;23;20197;-82
2024/01/30 02:43:07;;;;;;;5.60;4.70;;;;;10.00;101993.00;;;;12759550;23;20202;-82
2024/01/30 02:48:09;;;;;;;8.10;5.03;;;;;10.10;101996.00;;;;12638857;23;20199;-82
2024/01/30 02:53:11;;;;;;;7.53;4.20;;;;;10.10;101994.00;;;;12759345;23;20195;-82
2024/01/30 02:58:12;;;;;;;6.97;4.73;;;;;10.20;101989.00;;;;12671369;23;20207;-82
2024/01/30 03:03:14;;;;;;;5.50;4.50;;;;;10.30;101984.00;;;;12630887;23;20865;-82
2024/01/30 03:08:16;;;;;;;7.43;3.93;;;;;10.30;101985.00;;;;12657073;23;20230;-81
2024/01/30 03:13:18;;;;;;;8.67;4.17;;;;;10.30;101990.00;;;;12633891;23;20206;-81
2024/01/30 03:18:20;;;;;;;5.87;4.47;;;;;10.20;102000.00;;;;12681394;23;20274;-82
2024/01/30 03:23:22;;;;;;;7.20;4.37;;;;;10.20;102003.00;;;;12655703;23;20527;-82
2024/01/30 03:28:24;;;;;;;6.17;4.37;;;;;10.10;101991.00;;;;12632283;23;20220;-82
2024/01/30 03:33:27;;;;;;;5.57;4.30;;;;;10.10;101988.00;;;;12632046;23;20207;-82
2024/01/30 03:38:29;;;;;;;4.43;4.03;;;;;10.30;101985.00;;;;12633057;23;20274;-82
2024/01/30 03:43:30;;;;;;;6.77;4.23;;;;;10.40;101988.00;;;;12705806;23;20202;-80
2024/01/30 03:48:32;;;;;;;7.53;4.40;;;;;10.40;101989.00;;;;12655201;23;20278;-80
2024/01/30 03:53:35;;;;;;;10.80;4.83;;;;;10.30;101984.00;;;;12658095;23;20199;-80
2024/01/30 03:58:37;;;;;;;5.57;4.60;;;;;10.10;101973.00;;;;12655093;23;20935;-80
2024/01/30 04:03:38;;;;;;;8.57;4.77;;;;;10.00;101961.00;;;;12631539;23;20245;-80
2024/01/30 04:08:41;;;;;;;7.57;5.03;;;;;9.90;101966.00;;;;12655418;23;20527;-79
2024/01/30 04:13:43;;;;;;;7.00;4.73;;;;;9.90;101975.00;;;;12680306;23;20279;-80
2024/01/30 04:18:45;;;;;;;6.87;4.73;;;;;9.80;101968.00;;;;12656105;23;20218;-79
2024/01/30 04:23:48;;;;;;;6.50;4.33;;;;;9.90;101970.00;;;;12654147;23;20248;-80
2024/01/30 04:28:50;;;;;;;5.20;4.47;;;;;10.00;101973.00;;;;12654834;23;20208;-80
2024/01/30 04:33:51;;;;;;;7.70;4.50;;;;;10.10;101974.00;;;;12655061;23;20292;-79
2024/01/30 04:38:53;;;;;;;6.83;4.33;;;;;10.20;101974.00;;;;12680239;23;20568;-80
2024/01/30 04:43:55;;;;;;;8.53;4.93;;;;;10.20;101974.00;;;;12633767;23;20884;-80
2024/01/30 04:48:57;;;;;;;7.87;4.40;;;;;10.20;101970.00;;;;12631622;23;20203;-80
2024/01/30 04:53:59;;;;;;;5.70;4.80;;;;;10.20;101968.00;;;;12656028;23;20269;-81
2024/01/30 04:59:02;;;;;;;6.80;4.63;;;;;10.20;101969.00;;;;12678657;23;20196;-80
2024/01/30 05:04:07;;;;;;;5.17;4.30;;;;;10.10;101968.00;;;;12632079;23;20196;-80
2024/01/30 05:09:11;;;;;;;6.87;4.57;;;;;10.10;101966.00;;;;12655980;23;20690;-81
2024/01/30 05:14:14;;;;;;;7.30;4.83;;;;;10.10;101960.00;;;;12631554;23;20885;-81
2024/01/30 05:19:17;;;;;;;5.90;4.63;;;;;10.10;101966.00;;;;12655883;23;20195;-80
2024/01/30 05:24:19;;;;;;;5.67;4.83;;;;;10.00;101968.00;;;;12653129;23;20222;-80
2024/01/30 05:29:22;;;;;;;5.87;4.67;;;;;10.00;101969.00;;;;12656275;23;20199;-80
2024/01/30 05:34:24;;;;;;;6.27;4.57;;;;;10.00;101970.00;;;;12654289;23;20195;-81
2024/01/30 05:39:25;;;;;;;7.23;4.50;;;;;10.10;101978.00;;;;12653628;23;20753;-80
2024/01/30 05:44:27;;;;;;;9.03;5.17;;;;;10.10;101962.00;;;;12630763;23;20200;-81
2024/01/30 05:49:29;;;;;;;7.23;5.03;;;;;10.10;101966.00;;;;12653544;23;20290;-80
2024/01/30 05:54:32;;;;;;;7.60;4.93;;;;;10.10;101977.00;;;;12654855;23;20275;-82
2024/01/30 05:59:36;;;;;;;10.23;4.93;;;;;10.00;101973.00;;;;12654094;23;20199;-80
2024/01/30 06:04:41;;;;;;;7.93;4.83;;;;;10.00;101979.00;;;;12654982;23;20278;-80
2024/01/30 06:09:43;;;;;;;7.03;5.57;;;;;9.90;101992.00;;;;12779986;22;20210;-80
2024/01/30 06:14:45;;;;;;;18.93;12.27;;;;;9.90;101995.00;;;;12655032;23;20221;-80
2024/01/30 06:19:48;;;;;;;13.07;8.63;;;;;9.90;102002.00;;;;12632222;23;20916;-80
2024/01/30 06:24:50;;;;;;;8.40;5.30;;;;;9.80;102009.00;;;;12633079;23;20203;-80
2024/01/30 06:29:52;;;;;;;8.50;5.03;;;;;9.80;102007.00;;;;12656751;23;20207;-81
2024/01/30 06:34:54;;;;;;;8.03;5.13;;;;;9.90;102013.00;;;;12656501;23;20203;-80
2024/01/30 06:39:56;;;;;;;5.73;5.03;;;;;9.90;102021.00;;;;12632193;23;20192;-81
2024/01/30 06:44:58;;;;;;;11.07;6.83;;;;;9.90;102026.00;;;;12680818;23;20278;-80
2024/01/30 06:50:02;;;;;;;9.40;6.43;;;;;9.90;102031.00;;;;12655806;23;20203;-81
2024/01/30 06:55:04;;;;;;;8.10;5.57;;;;;9.90;102031.00;;;;12655865;23;20219;-80
2024/01/30 07:00:07;;;;;;;8.23;4.87;;;;;9.90;102037.00;;;;12632593;23;20282;-80
2024/01/30 07:05:09;;;;;;;10.53;5.37;;;;;10.00;102043.00;;;;12656266;23;20207;-81
2024/01/30 07:10:11;;;;;;;8.93;6.30;;;;;9.90;102050.00;;;;12681510;23;20631;-80
2024/01/30 07:15:17;;;;;;;9.73;5.90;;;;;10.00;102059.00;;;;12632305;23;20207;-82
2024/01/30 07:20:20;;;;;;;7.07;5.70;;;;;10.10;102058.00;;;;12632999;23;20261;-81
2024/01/30 07:25:26;;;;;;;12.03;6.40;;;;;10.30;102072.00;;;;12679830;23;20201;-82
2024/01/30 07:30:28;;;;;;;8.80;5.73;;;;;10.40;102085.00;;;;12657079;23;20203;-82
2024/01/30 07:35:30;;;;;;;7.70;5.77;;;;;10.50;102091.00;;;;12693605;23;20199;-82
2024/01/30 07:40:33;;;;;;;11.30;6.63;;;;;10.70;102097.00;;;;12658473;23;20195;-82
2024/01/30 07:45:35;;;;;;;12.40;5.97;;;;;10.80;102095.00;;;;12660830;23;20649;-81
2024/01/30 07:50:37;;;;;;;14.30;7.67;;;;;11.00;102106.00;;;;12637652;23;20242;-83
2024/01/30 07:55:39;;;;;;;7.73;5.40;;;;;11.20;102106.00;;;;12680859;23;20198;-82
2024/01/30 08:00:41;;;;;;;8.60;5.70;;;;;11.40;102118.00;;;;12656099;23;20191;-82
2024/01/30 08:05:43;;;;;;;9.53;5.80;;;;;11.50;102113.00;;;;12632464;23;20266;-82
2024/01/30 08:10:45;;;;;;;10.43;6.03;;;;;11.50;102130.00;;;;12655426;23;20557;-82
2024/01/30 08:15:47;;;;;;;9.07;6.37;;;;;11.50;102133.00;;;;12655117;23;20265;-82
2024/01/30 08:20:49;;;;;;;14.43;7.07;;;;;11.60;102138.00;;;;12679118;23;20201;-82
2024/01/30 08:25:51;;;;;;;15.10;6.80;;;;;11.60;102138.00;;;;12680328;23;20298;-80
2024/01/30 08:30:52;;;;;;;14.05;6.13;;;;;11.70;102128.00;;;;12655835;23;20309;-80
2024/01/30 08:35:54;;;;;;;10.90;5.77;;;;;11.80;102115.00;;;;12679096;23;20226;-80
2024/01/30 08:40:56;;;;;;;14.47;6.37;;;;;11.90;102127.00;;;;12631137;23;20245;-80
2024/01/30 08:46:01;;;;;;;14.07;6.90;;;;;12.20;102122.00;;;;12632793;23;20187;-80
2024/01/30 08:51:03;;;;;;;11.57;6.70;;;;;12.40;102135.00;;;;12655959;23;20199;-80
2024/01/30 08:56:06;;;;;;;9.27;5.75;;;;;12.30;102137.00;;;;12654965;23;20195;-80
2024/01/30 09:01:08;;;;;;;13.67;8.13;;;;;12.20;102148.00;;;;12678466;23;20196;-80
2024/01/30 09:06:10;;;;;;;12.90;7.00;;;;;12.00;102153.00;;;;12654055;23;20203;-80
2024/01/30 09:11:14;;;;;;;12.52;7.82;;;;;11.90;102155.00;;;;12656447;23;20202;-80
2024/01/30 09:16:16;;;;;;;10.50;5.93;;;;;11.90;102148.00;;;;12654438;23;20207;-80
2024/01/30 09:21:18;;;;;;;12.83;7.33;;;;;11.90;102161.00;;;;12676532;23;20223;-80
2024/01/30 09:26:20;;;;;;;12.60;7.10;;;;;12.00;102166.00;;;;12678122;23;20219;-80
2024/01/30 09:31:26;;;;;;;12.60;6.87;;;;;12.20;102165.00;;;;12678324;23;20200;-80
2024/01/30 09:36:28;;;;;;;13.60;7.23;;;;;12.20;102165.00;;;;12654224;23;20222;-82
2024/01/30 09:41:32;;;;;;;14.20;7.60;;;;;12.30;102185.00;;;;12630556;23;20210;-82
2024/01/30 09:46:34;;;;;;;13.20;7.90;;;;;12.30;102186.00;;;;12655104;23;20191;-82
2024/01/30 09:51:37;;;;;;;14.77;7.10;;;;;12.40;102191.00;;;;12657137;23;20198;-82
2024/01/30 09:56:39;;;;;;;14.07;8.63;;;;;12.40;102194.00;;;;12634714;23;20196;-82
2024/01/30 10:01:42;;;;;;;16.65;8.73;;;;;12.30;102200.00;;;;12681190;23;20582;-82
2024/01/30 10:06:44;;;;;;;15.20;9.60;;;;;12.30;102210.00;;;;12633476;23;20210;-82
2024/01/30 10:11:48;;;;;;;16.60;9.07;;;;;12.20;102210.00;;;;12656810;23;20194;-82
2024/01/30 10:16:50;;;;;;;13.52;9.23;;;;;12.40;102213.00;;;;12633727;23;20202;-82
2024/01/30 10:21:53;;;;;;;16.63;9.35;;;;;12.40;102223.00;;;;12655037;23;20207;-82
2024/01/30 10:26:55;;;;;;;15.25;9.20;;;;;12.40;102227.00;;;;12633756;23;20682;-82
2024/01/30 10:32:01;;;;;;;16.85;10.60;;;;;12.30;102230.00;;;;12657399;23;20192;-82
2024/01/30 10:37:12;;;;;;;20.75;10.40;;;;;12.10;102244.00;;;;12655447;23;20188;-82
2024/01/30 10:42:18;;;;;;;15.68;10.52;;;;;11.80;102244.00;;;;12649274;23;20906;-83
2024/01/30 10:47:27;;;;;;;13.90;10.13;;;;;11.80;102245.00;;;;12624827;23;20195;-83
2024/01/30 10:52:29;;;;;;;16.10;9.93;;;;;11.90;102247.00;;;;12654895;23;20196;-82
2024/01/30 10:57:37;;;;;;;14.17;7.57;;;;;12.30;102252.00;;;;12632287;23;20200;-82
2024/01/30 11:02:41;;;;;;;12.63;7.03;;;;;12.30;102261.00;;;;12654902;23;20210;-82
2024/01/30 11:07:43;;;;;;;16.33;7.38;;;;;12.20;102251.00;;;;12679697;23;20257;-82
2024/01/30 11:12:46;;;;;;;11.18;6.57;;;;;12.10;102255.00;;;;12655940;23;20196;-83
2024/01/30 11:17:48;;;;;;;13.38;6.70;;;;;12.00;102259.00;;;;12631317;23;20287;-82
2024/01/30 11:22:52;;;;;;;10.90;5.53;;;;;11.70;102258.00;;;;12654756;23;20206;-83
2024/01/30 11:27:55;;;;;;;10.70;4.60;;;;;11.60;102262.00;;;;12632055;23;20226;-82
2024/01/30 11:33:04;;;;;;;8.73;4.33;;;;;12.00;102253.00;;;;12631837;23;20249;-82
2024/01/30 11:38:08;;;;;;;2.83;1.53;;;;;12.30;102265.00;;;;12631138;23;20635;-82
2024/01/30 11:43:11;;;;;;;4.07;1.80;;;;;12.30;102265.00;;;;12647378;23;20520;-83
2024/01/30 11:48:13;;;;;;;6.00;1.60;;;;;12.40;102280.00;;;;12626709;23;20211;-82
2024/01/30 11:53:15;;;;;;;3.67;1.10;;;;;12.50;102278.00;;;;12630895;23;20253;-81
2024/01/30 11:58:17;;;;;;;3.30;0.90;;;;;12.40;102288.00;;;;12630157;23;20195;-80
2024/01/30 12:03:19;;;;;;;9.07;1.10;;;;;12.80;102276.00;;;;12628431;23;20218;-81
2024/01/30 12:08:21;;;;;;;1.65;0.75;;;;;13.40;102285.00;;;;12653881;23;20203;-80
2024/01/30 12:13:23;;;;;;;4.60;1.20;;;;;12.90;102276.00;;;;12655015;23;20206;-81
2024/01/30 12:18:25;;;;;;;2.00;1.00;;;;;12.80;102267.00;;;;12631162;23;20242;-80
2024/01/30 12:23:28;;;;;;;1.35;0.80;;;;;12.50;102278.00;;;;12654582;23;20728;-81
2024/01/30 12:28:30;;;;;;;2.90;0.98;;;;;12.30;102294.00;;;;12633340;23;20207;-80
2024/01/30 12:33:32;;;;;;;4.07;0.90;;;;;11.90;102302.00;;;;12656794;23;20200;-80
2024/01/30 12:38:34;;;;;;;5.40;0.90;;;;;12.00;102300.00;;;;12655704;23;20705;-81
2024/01/30 12:43:36;;;;;;;3.15;0.90;;;;;12.40;102297.00;;;;12653824;23;20261;-80
2024/01/30 12:48:40;;;;;;;2.13;0.60;;;;;13.40;102305.00;;;;12638805;23;20205;-80
2024/01/30 12:53:42;;;;;;;3.20;0.60;;;;;13.10;102314.00;;;;12654441;23;20257;-80
2024/01/30 12:58:44;;;;;;;5.40;1.05;;;;;12.90;102317.00;;;;12628677;23;20199;-81
2024/01/30 13:03:50;;;;;;;4.13;1.10;;;;;12.80;102327.00;;;;12630358;23;20222;-82
2024/01/30 13:08:52;;;;;;;5.50;0.90;;;;;12.50;102313.00;;;;12628398;23;20238;-82
2024/01/30 13:13:54;;;;;;;3.92;0.95;;;;;11.90;102332.00;;;;12655035;23;20222;-82
2024/01/30 13:18:56;;;;;;;6.53;1.05;;;;;11.60;102331.00;;;;12654309;23;20191;-81
2024/01/30 13:23:58;;;;;;;6.28;1.30;;;;;11.50;102326.00;;;;12652441;23;20858;-81
2024/01/30 13:29:01;;;;;;;5.87;1.20;;;;;11.60;102334.00;;;;12631470;23;20911;-81
2024/01/30 13:34:03;;;;;;;3.17;0.90;;;;;11.60;102323.00;;;;12631119;23;20635;-81
2024/01/30 13:39:10;;;;;;;4.03;1.00;;;;;11.50;102323.00;;;;12653878;23;20257;-80
2024/01/30 13:44:12;;;;;;;3.77;1.00;;;;;11.40;102333.00;;;;12632208;23;20194;-79
2024/01/30 13:49:14;;;;;;;5.03;1.53;;;;;11.60;102339.00;;;;12653578;23;20191;-81
2024/01/30 13:54:16;;;;;;;6.37;1.33;;;;;11.60;102349.00;;;;12630754;23;21003;-80
2024/01/30 13:59:23;;;;;;;2.90;0.83;;;;;11.60;102352.00;;;;12630267;23;20218;-80
2024/01/30 14:04:25;;;;;;;4.13;1.00;;;;;11.30;102354.00;;;;12653827;23;20203;-80
2024/01/30 14:09:28;;;;;;;5.80;1.30;;;;;11.10;102362.00;;;;12629369;23;20231;-81
2024/01/30 14:14:30;;;;;;;3.57;1.30;;;;;10.90;102362.00;;;;12629368;23;20191;-81
2024/01/30 14:19:35;;;;;;;6.70;1.23;;;;;10.70;102365.00;;;;12653240;23;20563;-80
2024/01/30 14:24:38;;;;;;;4.13;1.10;;;;;10.60;102370.00;;;;12652854;23;20250;-80
2024/01/30 14:29:42;;;;;;;4.60;1.30;;;;;10.50;102375.00;;;;12650248;23;20247;-80
2024/01/30 14:34:44;;;;;;;5.47;1.93;;;;;10.40;102387.00;;;;12629161;23;20757;-81
2024/01/30 14:39:47;;;;;;;5.93;1.67;;;;;10.40;102395.00;;;;12634426;23;20860;-80
2024/01/30 14:44:49;;;;;;;2.23;1.07;;;;;10.30;102391.00;;;;12676734;23;21044;-81
2024/01/30 14:49:52;;;;;;;6.67;1.33;;;;;10.10;102409.00;;;;12624120;23;20198;-80
2024/01/30 14:54:54;;;;;;;4.07;0.87;;;;;10.00;102406.00;;;;12629112;23;20195;-81
2024/01/30 14:59:56;;;;;;;5.23;1.40;;;;;10.00;102414.00;;;;12650441;23;20210;-82
2024/01/30 15:04:58;;;;;;;4.97;1.33;;;;;10.10;102421.00;;;;12648202;22;20199;-81
2024/01/30 15:10:00;;;;;;;2.57;1.20;;;;;10.00;102428.00;;;;12650233;23;20206;-81
2024/01/30 15:15:03;;;;;;;3.40;1.30;;;;;10.00;102444.00;;;;12647794;23;20204;-82
2024/01/30 15:20:06;;;;;;;3.87;2.33;;;;;9.80;102445.00;;;;12650468;23;20763;-80
2024/01/30 15:25:09;;;;;;;2.80;1.33;;;;;9.80;102451.00;;;;12624460;23;20196;-80
2024/01/30 15:30:12;;;;;;;6.67;1.40;;;;;9.70;102454.00;;;;12649850;23;20207;-80
2024/01/30 15:35:14;;;;;;;3.50;1.57;;;;;9.70;102452.00;;;;12651011;23;20195;-82
2024/01/30 15:40:16;;;;;;;5.30;1.23;;;;;9.60;102462.00;;;;12649794;23;20257;-82
2024/01/30 15:45:19;;;;;;;4.57;1.10;;;;;9.60;102481.00;;;;12649270;23;20196;-81
2024/01/30 15:50:21;;;;;;;3.50;1.53;;;;;9.60;102482.00;;;;12649724;23;20226;-81
2024/01/30 15:55:23;;;;;;;3.97;1.03;;;;;9.50;102489.00;;;;12650962;23;20199;-82
2024/01/30 16:00:25;;;;;;;2.60;1.03;;;;;9.50;102492.00;;;;12650803;23;20280;-83
2024/01/30 16:05:27;;;;;;;3.03;1.20;;;;;9.50;102508.00;;;;12650010;23;20536;-81
2024/01/30 16:10:29;;;;;;;5.23;1.50;;;;;9.40;102516.00;;;;12648439;23;20207;-81
2024/01/30 16:15:31;;;;;;;5.40;1.73;;;;;9.40;102524.00;;;;12672621;23;20253;-80
2024/01/30 16:20:52;;;;;;;2.63;1.40;;;;;9.40;102530.00;;;;12677638;23;20262;-79
2024/01/30 16:26:13;;;;;;;4.40;1.50;;;;;9.30;102534.00;;;;12656983;22;20195;-80
2024/01/30 16:31:34;;;;;;;4.77;2.13;;;;;9.10;102527.00;;;;12746516;22;20286;-79
2024/01/30 16:36:55;;;;;;;3.73;2.00;;;;;9.00;102532.00;;;;12678102;23;20192;-79
2024/01/30 16:42:18;;;;;;;5.60;2.03;;;;;8.70;102544.00;;;;12678069;23;20270;-80
2024/01/30 16:47:38;;;;;;;5.63;2.13;;;;;8.50;102551.00;;;;12662646;23;20199;-81
2024/01/30 16:53:01;;;;;;;5.87;2.97;;;;;8.40;102555.00;;;;12679676;23;20195;-81
2024/01/30 16:58:21;;;;;;;7.67;3.10;;;;;8.20;102565.00;;;;12678794;23;20203;-80
2024/01/30 17:03:43;;;;;;;6.87;3.63;;;;;7.90;102568.00;;;;12701861;23;20263;-81
2024/01/30 17:09:05;;;;;;;8.40;4.63;;;;;7.80;102571.00;;;;12660319;23;20192;-80
2024/01/30 17:14:28;;;;;;;9.03;3.90;;;;;7.70;102576.00;;;;12665024;23;20200;-80
2024/01/30 17:19:52;;;;;;;8.97;5.00;;;;;7.70;102585.00;;;;12664808;23;20199;-80
2024/01/30 17:25:13;;;;;;;7.50;4.10;;;;;7.70;102591.00;;;;12656516;23;20996;-80
2024/01/30 17:30:37;;;;;;;10.17;4.00;;;;;7.70;102592.00;;;;12677331;23;20520;-81
2024/01/30 17:35:59;;;;;;;7.33;4.60;;;;;7.80;102610.00;;;;12685471;23;20191;-81
2024/01/30 17:41:20;;;;;;;3.90;3.33;;;;;7.80;102627.00;;;;12744182;23;20179;-81
2024/01/30 17:46:42;;;;;;;10.07;4.17;;;;;7.80;102623.00;;;;12709940;23;20207;-82
2024/01/30 17:52:03;;;;;;;9.97;4.27;;;;;7.80;102634.00;;;;12678383;23;20203;-81
2024/01/30 17:57:24;;;;;;;6.60;4.60;;;;;7.80;102645.00;;;;12681407;23;20195;-81
2024/01/30 18:02:46;;;;;;;12.67;4.60;;;;;7.80;102653.00;;;;12658191;23;20519;-82
2024/01/30 18:08:07;;;;;;;9.20;4.50;;;;;7.80;102654.00;;;;12660340;23;20208;-81
2024/01/30 18:13:13;;;;;;;11.40;4.50;;;;;7.80;102657.00;;;;12654332;23;20278;-81
2024/01/30 18:18:15;;;;;;;8.03;4.50;;;;;7.80;102654.00;;;;12649169;23;20215;-81
2024/01/30 18:23:18;;;;;;;6.80;3.70;;;;;7.80;102652.00;;;;12651506;23;20195;-81
2024/01/30 18:28:20;;;;;;;9.60;4.40;;;;;7.80;102651.00;;;;12628400;23;20199;-81
2024/01/30 18:33:22;;;;;;;7.60;4.13;;;;;7.80;102665.00;;;;12653322;23;20202;-81
2024/01/30 18:38:24;;;;;;;7.50;4.27;;;;;7.80;102664.00;;;;12654311;23;20674;-81
2024/01/30 18:43:26;;;;;;;6.93;4.37;;;;;7.80;102667.00;;;;12679656;23;20508;-81
2024/01/30 18:48:28;;;;;;;8.03;4.33;;;;;7.90;102673.00;;;;12678210;23;20196;-81
2024/01/30 18:53:30;;;;;;;12.00;4.57;;;;;7.90;102688.00;;;;12654157;23;20218;-81
2024/01/30 18:58:31;;;;;;;9.27;4.60;;;;;7.80;102685.00;;;;12630111;23;20262;-82
2024/01/30 19:03:34;;;;;;;7.40;4.73;;;;;7.80;102703.00;;;;12653198;23;20260;-78
2024/01/30 19:08:36;;;;;;;11.43;4.93;;;;;7.80;102712.00;;;;12654250;23;20751;-78
2024/01/30 19:13:38;;;;;;;9.27;4.33;;;;;7.80;102709.00;;;;12676055;23;20207;-79
2024/01/30 19:18:40;;;;;;;9.47;4.37;;;;;7.80;102711.00;;;;12678513;23;20214;-78
2024/01/30 19:23:42;;;;;;;7.53;4.73;;;;;7.80;102709.00;;;;12647019;23;20195;-79
2024/01/30 19:28:46;;;;;;;5.93;4.53;;;;;7.80;102701.00;;;;12676468;23;20204;-78
2024/01/30 19:33:48;;;;;;;9.47;4.80;;;;;7.70;102705.00;;;;12653806;23;20302;-78
2024/01/30 19:38:50;;;;;;;10.23;5.40;;;;;7.70;102722.00;;;;12654191;23;20279;-78
2024/01/30 19:43:52;;;;;;;9.73;5.13;;;;;7.70;102727.00;;;;12676570;23;20257;-78
2024/01/30 19:48:54;;;;;;;8.00;5.00;;;;;7.80;102725.00;;;;12630186;23;20208;-79
2024/01/30 19:53:56;;;;;;;10.07;5.17;;;;;7.80;102731.00;;;;12630118;23;20221;-78
2024/01/30 19:58:58;;;;;;;11.13;6.07;;;;;7.70;102729.00;;;;12629763;23;20278;-77
2024/01/30 20:04:01;;;;;;;16.33;6.10;;;;;7.70;102725.00;;;;12650297;23;20204;-79
2024/01/30 20:09:03;;;;;;;8.70;6.57;;;;;7.70;102737.00;;;;12628516;23;20195;-78
2024/01/30 20:14:05;;;;;;;8.77;6.53;;;;;7.70;102742.00;;;;12650586;23;20274;-81
2024/01/30 20:19:09;;;;;;;9.40;6.20;;;;;7.70;102744.00;;;;12700523;23;20884;-81
2024/01/30 20:24:11;;;;;;;6.87;5.90;;;;;7.70;102755.00;;;;12628211;23;20206;-80
2024/01/30 20:29:13;;;;;;;15.03;7.07;;;;;7.70;102754.00;;;;12676001;23;20714;-81
2024/01/30 20:34:15;;;;;;;10.90;6.47;;;;;7.70;102763.00;;;;12676014;23;20199;-81
2024/01/30 20:39:17;;;;;;;9.80;6.23;;;;;7.70;102772.00;;;;12652964;23;20199;-81
2024/01/30 20:44:19;;;;;;;10.13;6.93;;;;;7.70;102773.00;;;;12622293;23;20195;-82
2024/01/30 20:49:21;;;;;;;11.20;7.47;;;;;7.70;102785.00;;;;12623437;23;20253;-81
2024/01/30 20:54:24;;;;;;;13.30;6.90;;;;;7.60;102786.00;;;;12651573;23;20191;-81
2024/01/30 20:59:27;;;;;;;10.23;7.33;;;;;7.70;102789.00;;;;12651528;23;20211;-81
2024/01/30 21:04:28;;;;;;;10.57;6.90;;;;;7.60;102782.00;;;;12629345;23;20238;-81
2024/01/30 21:09:31;;;;;;;10.17;7.20;;;;;7.60;102777.00;;;;12653643;23;20278;-81
2024/01/30 21:14:33;;;;;;;12.17;7.07;;;;;7.60;102793.00;;;;12649952;23;20223;-81
2024/01/30 21:19:35;;;;;;;9.17;7.10;;;;;7.60;102793.00;;;;12650686;23;21040;-81
2024/01/30 21:24:37;;;;;;;8.87;6.43;;;;;7.60;102797.00;;;;12650754;23;20195;-78
2024/01/30 21:29:41;;;;;;;11.53;7.53;;;;;7.50;102810.00;;;;12651297;23;20221;-79
2024/01/30 21:34:43;;;;;;;13.73;8.13;;;;;7.50;102809.00;;;;12627887;23;20724;-79
2024/01/30 21:39:45;;;;;;;13.07;8.33;;;;;7.50;102822.00;;;;12652090;23;20192;-79
2024/01/30 21:44:47;;;;;;;11.27;8.37;;;;;7.50;102836.00;;;;12653747;23;20207;-78
2024/01/30 21:49:49;;;;;;;11.27;8.37;;;;;7.50;102824.00;;;;12654628;23;20715;-79
2024/01/30 21:54:51;;;;;;;10.70;8.63;;;;;7.50;102833.00;;;;12632128;23;20714;-79
2024/01/30 21:59:53;;;;;;;15.97;9.63;;;;;7.40;102840.00;;;;12682439;23;20202;-78
2024/01/30 22:04:55;;;;;;;11.97;9.07;;;;;7.50;102831.00;;;;12657260;23;20229;-80
2024/01/30 22:09:57;;;;;;;11.73;8.40;;;;;7.50;102840.00;;;;12609710;23;20574;-79
2024/01/30 22:14:59;;;;;;;12.70;9.07;;;;;7.50;102848.00;;;;12655549;23;20188;-79
2024/01/30 22:20:03;;;;;;;15.43;10.17;;;;;7.50;102845.00;;;;12655180;23;20206;-78
2024/01/30 22:25:06;;;;;;;11.63;9.77;;;;;7.40;102848.00;;;;12677882;23;20207;-78
2024/01/30 22:30:08;;;;;;;14.50;11.03;;;;;7.40;102849.00;;;;12656161;23;20218;-78
2024/01/30 22:35:13;;;;;;;13.30;11.10;;;;;7.40;102844.00;;;;12679546;23;20215;-81
2024/01/30 22:40:15;;;;;;;14.30;11.17;;;;;7.40;102849.00;;;;12631040;23;20199;-81
2024/01/30 22:45:17;;;;;;;14.20;10.70;;;;;7.50;102855.00;;;;12650031;23;20730;-81
2024/01/30 22:50:19;;;;;;;13.70;10.70;;;;;7.50;102854.00;;;;12664156;23;20567;-80
2024/01/30 22:55:21;;;;;;;12.93;10.43;;;;;7.50;102855.00;;;;12671955;23;20207;-81
2024/01/30 23:00:28;;;;;;;16.00;11.03;;;;;7.50;102869.00;;;;12676535;23;20642;-81
2024/01/30 23:05:30;;;;;;;14.67;10.97;;;;;7.50;102881.00;;;;12677669;23;20624;-81
2024/01/30 23:10:32;;;;;;;21.83;12.47;;;;;7.50;102867.00;;;;12703201;23;20208;-81
2024/01/30 23:15:35;;;;;;;15.50;11.90;;;;;7.50;102868.00;;;;12628812;23;20233;-81
2024/01/30 23:20:38;;;;;;;15.73;11.40;;;;;7.50;102864.00;;;;12652383;23;20204;-81
2024/01/30 23:25:39;;;;;;;18.90;12.00;;;;;7.50;102857.00;;;;12653303;23;20656;-81
2024/01/30 23:30:42;;;;;;;19.37;13.43;;;;;7.50;102863.00;;;;12677475;23;20585;-81
2024/01/30 23:35:44;;;;;;;17.10;12.83;;;;;7.50;102858.00;;;;12653111;23;20245;-81
2024/01/30 23:40:48;;;;;;;17.53;12.60;;;;;7.50;102863.00;;;;12677584;23;20726;-81
2024/01/30 23:45:50;;;;;;;21.20;12.90;;;;;7.50;102870.00;;;;12628837;23;20195;-78
2024/01/30 23:50:52;;;;;;;18.93;13.77;;;;;7.40;102864.00;;;;12631948;23;20711;-80
2024/01/30 23:55:54;;;;;;;22.40;13.33;;;;;7.40;102869.00;;;;12680262;23;20290;-79
